Time;durP1;ratioP1;P1;durP2;ratioP2;P2;SDS_P1;SDS_P2;PMS_P1;PMS_P2;Temp;Humidity;BMP_temperature;BMP_pressure;BME280_temperature;BME280_humidity;BME280_pressure;Samples;Min_cycle;Max_cycle;Signal;HPM_P1;HPM_P2
2022/07/13 00:00:31;;;;;;;;;7.00;5.25;;;;;29.56;26.17;101499.63;5056887;28;45650;-59
2022/07/13 00:02:56;;;;;;;;;7.00;5.75;;;;;29.63;26.02;101509.28;5056120;28;46527;-59
2022/07/13 00:05:22;;;;;;;;;5.25;5.25;;;;;29.58;26.06;101498.16;5055171;28;45378;-59
2022/07/13 00:07:47;;;;;;;;;5.00;5.00;;;;;29.52;26.54;101505.09;5054920;28;45450;-59
2022/07/13 00:10:13;;;;;;;;;4.50;4.50;;;;;29.42;26.54;101503.34;5056127;28;45494;-58
2022/07/13 00:12:39;;;;;;;;;11.00;9.00;;;;;29.46;26.20;101512.00;5071943;28;46035;-59
2022/07/13 00:15:05;;;;;;;;;5.60;5.60;;;;;29.41;26.13;101515.81;5071172;28;45497;-60
2022/07/13 00:17:31;;;;;;;;;4.60;4.60;;;;;29.15;26.78;101484.53;5071985;28;45438;-59
2022/07/13 00:19:56;;;;;;;;;9.75;9.00;;;;;29.25;26.43;101497.56;5056704;28;45365;-59
2022/07/13 00:22:22;;;;;;;;;8.00;5.25;;;;;29.32;26.60;101517.72;5027988;28;46336;-59
2022/07/13 00:24:47;;;;;;;;;11.50;10.50;;;;;29.28;26.41;101506.22;5055163;28;45305;-58
2022/07/13 00:27:13;;;;;;;;;5.00;4.25;;;;;29.23;26.95;101503.53;5056441;28;45321;-59
2022/07/13 00:29:38;;;;;;;;;6.25;6.25;;;;;29.07;27.06;101481.31;5072210;28;45711;-58
2022/07/13 00:32:04;;;;;;;;;11.75;9.00;;;;;29.22;26.82;101502.72;5055926;28;45467;-60
2022/07/13 00:34:30;;;;;;;;;9.00;7.75;;;;;29.28;27.35;101514.72;5071326;28;45244;-58
2022/07/13 00:36:56;;;;;;;;;10.40;7.00;;;;;29.26;26.79;101502.06;5056022;28;45403;-59
2022/07/13 00:39:22;;;;;;;;;7.40;7.40;;;;;29.23;27.10;101492.22;5072022;28;45456;-57
2022/07/13 00:41:47;;;;;;;;;7.00;7.00;;;;;29.25;27.07;101498.41;5055722;28;45488;-60
2022/07/13 00:44:13;;;;;;;;;5.50;5.50;;;;;29.24;26.89;101488.28;5088705;27;45341;-61
2022/07/13 00:46:42;;;;;;;;;6.25;6.00;;;;;29.26;27.40;101491.59;5088762;27;45348;-58
2022/07/13 00:49:08;;;;;;;;;9.40;9.40;;;;;29.19;27.41;101486.38;5055840;28;45359;-58
2022/07/13 00:51:33;;;;;;;;;4.50;4.50;;;;;29.01;27.55;101470.47;5088280;27;45731;-58
2022/07/13 00:53:59;;;;;;;;;5.00;5.00;;;;;29.15;27.00;101484.53;5071502;28;45317;-60
2022/07/13 00:56:25;;;;;;;;;6.00;5.00;;;;;29.13;27.32;101496.16;5088354;27;45582;-58
2022/07/13 00:58:50;;;;;;;;;4.00;4.00;;;;;28.90;27.77;101465.09;5056268;28;45339;-60
2022/07/13 01:01:16;;;;;;;;;6.00;5.75;;;;;28.88;27.23;101470.22;5088332;27;45913;-58
2022/07/13 01:03:42;;;;;;;;;3.00;3.00;;;;;28.64;27.24;101442.22;5088129;27;45376;-59
2022/07/13 01:06:07;;;;;;;;;7.00;4.75;;;;;28.84;27.04;101479.59;5088425;27;45180;-59
2022/07/13 01:08:34;;;;;;;;;4.25;4.25;;;;;28.66;27.02;101452.06;5088410;27;45407;-56
2022/07/13 01:10:59;;;;;;;;;6.40;5.00;;;;;28.90;27.17;101486.84;5054624;28;45807;-59
2022/07/13 01:13:25;;;;;;;;;5.00;4.50;;;;;28.84;27.63;101480.44;5055125;28;45361;-58
2022/07/13 01:15:50;;;;;;;;;4.00;4.00;;;;;28.82;27.02;101475.13;5055383;28;45281;-59
2022/07/13 01:18:16;;;;;;;;;4.00;4.00;;;;;28.81;27.33;101473.44;5055307;28;45344;-57
2022/07/13 01:20:41;;;;;;;;;7.50;6.50;;;;;28.87;27.48;101470.53;5054673;28;45567;-59
2022/07/13 01:23:11;;;;;;;;;5.25;5.25;;;;;28.72;26.99;101449.97;5054817;28;45915;-59
2022/07/13 01:25:36;;;;;;;;;4.80;4.80;;;;;28.84;27.82;101471.13;5055520;28;45380;-61
2022/07/13 01:28:02;;;;;;;;;4.00;4.00;;;;;28.73;27.74;101453.59;5057318;28;45281;-59
2022/07/13 01:30:27;;;;;;;;;4.25;2.25;;;;;28.82;27.55;101477.94;5057045;28;46129;-58
2022/07/13 01:32:53;;;;;;;;;3.00;3.00;;;;;28.81;26.99;101481.09;5058582;28;45379;-59
2022/07/13 01:35:19;;;;;;;;;4.50;4.50;;;;;28.80;27.30;101477.44;5035261;28;45366;-60
2022/07/13 01:37:44;;;;;;;;;5.20;5.00;;;;;28.80;26.69;101477.44;5058471;28;45377;-59
2022/07/13 01:40:11;;;;;;;;;5.75;4.25;;;;;28.77;27.67;101480.88;5073701;28;45695;-59
2022/07/13 01:42:50;;;;;;;;;3.60;3.60;;;;;28.53;27.73;101439.66;5040151;28;45355;-59
2022/07/13 01:45:17;;;;;;;;;4.40;4.00;;;;;28.66;27.07;101465.34;5074024;28;45340;-59
2022/07/13 01:47:47;;;;;;;;;5.80;4.20;;;;;28.55;27.31;101447.81;5056821;28;45693;-59
2022/07/13 01:50:14;;;;;;;;;4.20;4.20;;;;;28.53;27.57;101453.78;5058028;28;45542;-58
2022/07/13 01:52:39;;;;;;;;;3.80;3.80;;;;;28.68;27.50;101474.34;5039672;28;45389;-59
2022/07/13 01:55:05;;;;;;;;;3.75;3.75;;;;;28.55;27.50;101451.47;5058231;28;45305;-59
2022/07/13 01:57:31;;;;;;;;;3.80;3.80;;;;;28.62;27.18;101467.97;5040133;28;45408;-60
2022/07/13 01:59:58;;;;;;;;;6.00;4.00;;;;;28.62;26.79;101476.44;5073304;28;46484;-58
2022/07/13 02:02:24;;;;;;;;;7.00;7.00;;;;;28.39;27.30;101442.50;5057829;28;45476;-58
2022/07/13 02:04:49;;;;;;;;;5.50;5.50;;;;;28.38;27.57;101440.03;5058181;28;45514;-58
2022/07/13 02:07:15;;;;;;;;;5.50;4.50;;;;;28.34;27.03;101428.50;5058189;28;45282;-59
2022/07/13 02:09:40;;;;;;;;;5.00;4.00;;;;;28.53;27.40;101452.94;5057365;28;46097;-59
2022/07/13 02:12:06;;;;;;;;;4.00;4.00;;;;;28.54;27.47;101457.41;5058170;28;45335;-58
2022/07/13 02:14:31;;;;;;;;;8.00;6.25;;;;;28.36;28.23;101428.19;5056754;28;45882;-59
2022/07/13 02:16:57;;;;;;;;;1.00;1.00;;;;;28.40;27.56;101432.88;5058198;28;45419;-58
2022/07/13 02:19:23;;;;;;;;;7.00;5.00;;;;;28.50;27.31;101448.75;5057949;28;45825;-60
2022/07/13 02:21:49;;;;;;;;;2.80;2.80;;;;;28.52;27.88;101443.66;5057996;28;45347;-60
2022/07/13 02:24:14;;;;;;;;;5.75;5.00;;;;;28.30;27.58;101404.06;5057770;28;45371;-59
2022/07/13 02:26:40;;;;;;;;;7.75;6.00;;;;;28.51;28.32;101450.44;5058037;28;45382;-59
2022/07/13 02:29:05;;;;;;;;;5.25;5.25;;;;;28.52;27.74;101448.44;5073475;28;45406;-58
2022/07/13 02:31:33;;;;;;;;;5.75;4.75;;;;;28.51;27.87;101444.81;5057871;28;45398;-59
2022/07/13 02:33:59;;;;;;;;;3.80;3.80;;;;;28.51;28.27;101438.31;5057362;28;45281;-59
2022/07/13 02:36:25;;;;;;;;;5.00;5.00;;;;;28.54;27.98;101440.47;5036743;28;45394;-59
2022/07/13 02:38:50;;;;;;;;;4.75;4.00;;;;;28.53;28.49;101445.31;5049369;28;46960;-58
2022/07/13 02:41:15;;;;;;;;;8.00;5.00;;;;;28.55;28.28;101439.34;5057482;28;45434;-59
2022/07/13 02:43:41;;;;;;;;;8.50;6.00;;;;;28.33;28.58;101400.63;5057358;28;45356;-59
2022/07/13 02:46:06;;;;;;;;;5.00;4.00;;;;;28.55;28.62;101439.34;5057865;28;45356;-59
2022/07/13 02:48:33;;;;;;;;;4.00;4.00;;;;;28.52;28.29;101435.19;5057127;28;45983;-59
2022/07/13 02:50:58;;;;;;;;;4.40;4.40;;;;;28.29;28.61;101408.91;5055854;28;45343;-59
2022/07/13 02:53:24;;;;;;;;;5.75;5.00;;;;;28.47;28.05;101431.63;5073127;28;45350;-59
2022/07/13 02:55:49;;;;;;;;;6.50;6.00;;;;;28.44;28.59;101432.28;5057711;28;45639;-59
2022/07/13 02:58:15;;;;;;;;;7.50;3.00;;;;;28.39;28.61;101428.41;5057068;28;46277;-59
2022/07/13 03:00:40;;;;;;;;;5.50;5.50;;;;;28.33;28.46;101426.03;5056924;28;45267;-59
2022/07/13 03:03:06;;;;;;;;;5.00;5.00;;;;;28.37;28.53;101438.34;5056060;28;45414;-59
2022/07/13 03:05:31;;;;;;;;;6.00;5.25;;;;;28.33;28.76;101437.31;5057560;28;45147;-59
2022/07/13 03:07:57;;;;;;;;;4.25;4.25;;;;;28.27;28.31;101433.75;5057082;28;46503;-59
2022/07/13 03:10:22;;;;;;;;;6.00;6.00;;;;;28.16;28.35;101421.84;5089371;27;45320;-59
2022/07/13 03:12:48;;;;;;;;;6.75;6.75;;;;;28.06;28.88;101405.16;5056832;28;45395;-59
2022/07/13 03:15:13;;;;;;;;;6.50;6.50;;;;;28.23;28.81;101432.75;5038838;28;45553;-58
2022/07/13 03:17:40;;;;;;;;;3.00;3.00;;;;;28.26;28.48;101443.38;5055312;28;45865;-59
2022/07/13 03:20:07;;;;;;;;;4.80;4.20;;;;;28.13;28.75;101414.84;5056808;28;45904;-59
2022/07/13 03:22:33;;;;;;;;;3.60;3.60;;;;;28.22;28.65;101440.34;5072566;28;45478;-58
2022/07/13 03:24:58;;;;;;;;;9.75;6.25;;;;;28.21;28.70;101429.34;5072030;28;45591;-59
2022/07/13 03:27:24;;;;;;;;;3.75;3.50;;;;;28.21;28.48;101437.81;5056330;28;46547;-60
2022/07/13 03:29:49;;;;;;;;;7.25;6.00;;;;;28.04;28.36;101413.06;5056320;28;45329;-57
2022/07/13 03:32:15;;;;;;;;;3.50;3.50;;;;;28.14;28.65;101436.28;5055341;28;45418;-59
2022/07/13 03:34:40;;;;;;;;;4.75;4.00;;;;;28.10;29.08;101423.94;5056706;28;45760;-58
2022/07/13 03:37:07;;;;;;;;;5.00;4.00;;;;;27.87;28.80;101408.94;5054857;28;46521;-59
2022/07/13 03:39:33;;;;;;;;;5.60;5.60;;;;;27.90;28.74;101430.03;5055212;28;45579;-59
2022/07/13 03:41:58;;;;;;;;;5.25;5.25;;;;;27.97;29.53;101434.06;5071837;28;45861;-58
2022/07/13 03:44:24;;;;;;;;;4.00;4.00;;;;;27.98;29.03;101432.94;5056454;28;45561;-59
2022/07/13 03:46:49;;;;;;;;;3.00;3.00;;;;;28.00;28.82;101430.66;5056429;28;46143;-58
2022/07/13 03:49:15;;;;;;;;;4.50;4.00;;;;;27.81;28.53;101396.09;5053777;28;45431;-59
2022/07/13 03:51:42;;;;;;;;;4.25;4.25;;;;;28.06;29.43;101436.19;5071538;28;45465;-58
2022/07/13 03:54:08;;;;;;;;;3.80;3.80;;;;;28.03;29.37;101437.66;5056163;28;45404;-59
2022/07/13 03:56:33;;;;;;;;;4.50;4.50;;;;;28.00;29.44;101436.28;5055131;28;46601;-57
2022/07/13 03:58:59;;;;;;;;;6.00;5.00;;;;;28.04;29.18;101444.09;5055685;28;45340;-59
2022/07/13 04:01:24;;;;;;;;;5.00;5.00;;;;;27.76;29.22;101413.09;5054809;28;45244;-59
2022/07/13 04:03:51;;;;;;;;;5.50;5.50;;;;;27.87;29.51;101435.13;5056469;28;45518;-59
2022/07/13 04:06:17;;;;;;;;;4.20;4.20;;;;;27.73;29.30;101423.03;5054641;28;47506;-60
2022/07/13 04:08:42;;;;;;;;;5.40;4.60;;;;;27.87;29.35;101445.59;5055709;28;45227;-59
2022/07/13 04:11:08;;;;;;;;;6.50;5.25;;;;;27.70;29.56;101415.19;5056251;28;45426;-59
2022/07/13 04:13:33;;;;;;;;;3.25;3.25;;;;;27.77;29.17;101426.91;5071709;28;45389;-59
2022/07/13 04:15:59;;;;;;;;;5.75;5.50;;;;;27.86;29.21;101438.28;5070974;28;45728;-59
2022/07/13 04:18:24;;;;;;;;;4.25;4.25;;;;;27.83;29.21;101441.72;5054632;28;45516;-59
2022/07/13 04:20:50;;;;;;;;;3.25;3.25;;;;;27.87;29.57;101449.22;5056091;28;45216;-58
2022/07/13 04:23:15;;;;;;;;;6.00;5.00;;;;;27.70;29.47;101415.19;5054486;28;45438;-59
2022/07/13 04:25:41;;;;;;;;;4.75;3.50;;;;;27.85;29.28;101433.78;5055375;28;46356;-59
2022/07/13 04:28:06;;;;;;;;;5.00;5.00;;;;;27.90;29.47;101439.31;5055613;28;45386;-59
2022/07/13 04:30:32;;;;;;;;;5.00;5.00;;;;;27.92;29.65;101439.84;5056027;28;45342;-58
2022/07/13 04:32:57;;;;;;;;;8.00;5.00;;;;;27.89;29.48;101443.28;5071373;28;45424;-59
2022/07/13 04:35:23;;;;;;;;;5.25;5.25;;;;;27.72;29.99;101404.44;5055651;28;46548;-59
2022/07/13 04:37:48;;;;;;;;;6.00;4.75;;;;;27.97;29.72;101436.09;5055547;28;45324;-58
2022/07/13 04:40:14;;;;;;;;;6.00;4.75;;;;;27.76;29.69;101401.81;5054399;28;45386;-59
2022/07/13 04:42:39;;;;;;;;;6.00;5.00;;;;;27.97;29.77;101436.91;5071306;28;45582;-60
2022/07/13 04:45:05;;;;;;;;;4.50;4.50;;;;;27.79;29.85;101401.22;5055468;28;46472;-59
2022/07/13 04:47:31;;;;;;;;;4.80;4.80;;;;;28.00;29.83;101438.25;5087888;27;45479;-58
2022/07/13 04:49:56;;;;;;;;;5.25;4.75;;;;;27.97;29.59;101431.25;5055156;28;45338;-58
2022/07/13 04:52:22;;;;;;;;;6.00;5.75;;;;;27.99;29.92;101433.78;5055487;28;45601;-59
2022/07/13 04:54:47;;;;;;;;;6.00;5.00;;;;;27.95;29.92;101424.28;5055055;28;45694;-58
2022/07/13 04:57:13;;;;;;;;;5.00;5.00;;;;;27.88;29.79;101424.69;5055681;28;45360;-59
2022/07/13 04:59:38;;;;;;;;;6.00;6.00;;;;;27.98;29.49;101435.78;5054122;28;45542;-59
2022/07/13 05:02:04;;;;;;;;;5.00;5.00;;;;;28.00;29.91;101443.91;5059158;28;45359;-57
2022/07/13 05:04:29;;;;;;;;;5.75;4.50;;;;;27.93;29.56;101424.59;5058566;28;45288;-58
2022/07/13 05:06:55;;;;;;;;;5.25;5.00;;;;;28.00;30.01;101439.09;5074631;28;45414;-59
2022/07/13 05:09:21;;;;;;;;;5.00;4.00;;;;;27.91;30.03;101424.09;5058391;28;45384;-59
2022/07/13 05:11:47;;;;;;;;;5.40;5.40;;;;;27.90;29.96;101430.84;5058033;28;45397;-59
2022/07/13 05:14:12;;;;;;;;;5.00;5.00;;;;;27.60;30.10;101386.06;5058343;28;46453;-59
2022/07/13 05:16:38;;;;;;;;;7.75;6.75;;;;;27.90;29.94;101436.47;5073901;28;45404;-59
2022/07/13 05:19:04;;;;;;;;;5.50;4.00;;;;;27.89;30.26;101443.28;5058691;28;45445;-59
2022/07/13 05:21:29;;;;;;;;;6.00;5.00;;;;;27.81;30.27;101415.81;5074514;28;45273;-60
2022/07/13 05:23:55;;;;;;;;;7.25;7.25;;;;;27.91;29.89;101431.69;5027036;28;46335;-59
2022/07/13 05:26:20;;;;;;;;;9.50;7.50;;;;;27.91;30.28;101440.16;5057240;28;45254;-59
2022/07/13 05:28:46;;;;;;;;;4.75;4.00;;;;;27.87;30.58;101437.94;5058616;28;45260;-59
2022/07/13 05:31:11;;;;;;;;;7.50;7.50;;;;;27.92;29.92;101442.66;5058877;28;45488;-60
2022/07/13 05:33:36;;;;;;;;;7.25;7.25;;;;;27.90;30.31;101436.47;5057930;28;46448;-58
2022/07/13 05:36:04;;;;;;;;;5.50;5.50;;;;;27.90;30.55;101432.84;5057210;28;45537;-59
2022/07/13 05:38:29;;;;;;;;;6.60;6.60;;;;;27.95;30.06;101452.50;5058214;28;45443;-59
2022/07/13 05:40:55;;;;;;;;;7.50;7.00;;;;;27.78;30.26;101416.44;5058499;28;45853;-60
2022/07/13 05:43:21;;;;;;;;;7.25;6.50;;;;;28.04;30.36;101449.75;5058266;28;45868;-58
2022/07/13 05:45:46;;;;;;;;;5.50;5.50;;;;;27.91;30.52;101432.53;5056920;28;45459;-55
2022/07/13 05:48:12;;;;;;;;;2.50;2.50;;;;;27.93;30.08;101430.22;5058441;28;45313;-56
2022/07/13 05:50:37;;;;;;;;;6.25;6.25;;;;;28.14;30.29;101443.91;5057993;28;45332;-59
2022/07/13 05:53:02;;;;;;;;;8.00;4.00;;;;;28.16;29.90;101454.88;5057963;28;46647;-57
2022/07/13 05:55:28;;;;;;;;;9.75;6.00;;;;;28.14;30.54;101452.38;5073635;28;45412;-59
2022/07/13 05:57:53;;;;;;;;;7.00;5.50;;;;;28.18;30.56;101442.13;5058300;28;45339;-59
2022/07/13 06:00:20;;;;;;;;;8.00;7.50;;;;;28.20;31.13;101456.75;5056621;28;45336;-54
2022/07/13 06:02:45;;;;;;;;;4.40;4.40;;;;;28.24;29.71;101452.19;5056385;28;45815;-58
2022/07/13 06:05:11;;;;;;;;;6.00;5.00;;;;;28.22;30.63;101454.47;5057751;28;45314;-60
2022/07/13 06:07:36;;;;;;;;;8.75;8.75;;;;;28.16;30.55;101444.41;5057775;28;45187;-60
2022/07/13 06:10:03;;;;;;;;;10.00;7.50;;;;;28.16;30.60;101455.69;5053718;28;45396;-58
2022/07/13 06:12:29;;;;;;;;;7.00;6.80;;;;;28.21;30.27;101464.09;5055558;28;46831;-59
2022/07/13 06:14:55;;;;;;;;;5.50;5.50;;;;;28.22;29.87;101464.94;5071385;28;45364;-60
2022/07/13 06:17:21;;;;;;;;;6.00;6.00;;;;;28.19;30.30;101462.69;5056266;28;45328;-59
2022/07/13 06:19:46;;;;;;;;;7.00;7.00;;;;;28.17;30.23;101460.19;5056614;28;45523;-60
2022/07/13 06:22:12;;;;;;;;;7.25;5.75;;;;;28.18;29.67;101461.88;5056179;28;45516;-61
2022/07/13 06:24:38;;;;;;;;;7.25;6.00;;;;;28.13;30.22;101459.97;5008150;27;47014;-59
2022/07/13 06:27:03;;;;;;;;;5.60;5.60;;;;;28.13;30.42;101465.63;5071353;28;45522;-60
2022/07/13 06:29:29;;;;;;;;;6.75;4.50;;;;;28.21;29.62;101457.56;5074387;28;45205;-60
2022/07/13 06:31:55;;;;;;;;;5.60;4.20;;;;;28.24;29.87;101459.81;5093137;27;46214;-59
2022/07/13 06:34:20;;;;;;;;;7.00;7.00;;;;;28.07;30.18;101430.19;5077815;28;45420;-55
2022/07/13 06:36:46;;;;;;;;;8.25;5.50;;;;;28.27;29.83;101468.47;5077970;27;45364;-58
2022/07/13 06:39:11;;;;;;;;;7.00;6.50;;;;;28.32;30.13;101461.06;5059921;28;45330;-59
2022/07/13 06:41:37;;;;;;;;;6.25;6.25;;;;;28.38;30.04;101460.59;5055425;28;47825;-54
2022/07/13 06:44:02;;;;;;;;;6.75;4.50;;;;;28.39;30.00;101469.91;5057107;28;45407;-59
2022/07/13 06:46:28;;;;;;;;;5.00;5.00;;;;;28.27;29.54;101443.06;5055916;28;45365;-57
2022/07/13 06:48:53;;;;;;;;;5.25;5.25;;;;;28.34;29.79;101447.44;5035702;28;45540;-58
2022/07/13 06:51:19;;;;;;;;;7.25;6.00;;;;;27.65;29.99;101356.94;5051212;28;45455;-58
2022/07/13 06:53:44;;;;;;;;;5.00;5.00;;;;;28.42;29.78;101466.44;5039214;28;46048;-53
2022/07/13 06:56:10;;;;;;;;;6.25;6.25;;;;;28.40;29.34;101465.94;5044335;28;45474;-57
2022/07/13 06:58:37;;;;;;;;;6.00;5.00;;;;;28.45;29.52;101462.16;5033910;28;45669;-59
2022/07/13 07:01:03;;;;;;;;;7.00;4.00;;;;;28.48;29.04;101468.00;5051403;28;45496;-60
2022/07/13 07:03:28;;;;;;;;;7.20;5.00;;;;;28.45;29.86;101454.53;5002596;28;45588;-55
2022/07/13 07:05:55;;;;;;;;;7.50;6.00;;;;;28.50;29.52;101456.41;5036169;28;45441;-57
2022/07/13 07:08:20;;;;;;;;;3.00;3.00;;;;;28.54;29.79;101465.88;5035547;28;45581;-54
2022/07/13 07:10:46;;;;;;;;;8.50;6.25;;;;;28.61;29.95;101469.13;5034977;28;45630;-56
2022/07/13 07:13:12;;;;;;;;;4.50;4.50;;;;;28.71;29.92;101464.38;5036470;28;45385;-57
2022/07/13 07:15:37;;;;;;;;;6.75;5.25;;;;;28.81;29.05;101476.28;5034823;28;45318;-58
2022/07/13 07:18:03;;;;;;;;;5.75;5.75;;;;;28.82;29.76;101452.53;5052249;28;45363;-59
2022/07/13 07:20:29;;;;;;;;;7.20;5.80;;;;;28.95;29.42;101461.28;5036627;28;46638;-59
2022/07/13 07:22:55;;;;;;;;;8.00;7.00;;;;;28.84;29.25;101437.22;5051864;28;45406;-58
2022/07/13 07:25:21;;;;;;;;;6.60;6.60;;;;;28.87;29.38;101433.81;5057328;28;45464;-59
2022/07/13 07:27:47;;;;;;;;;6.25;5.50;;;;;29.12;29.50;101466.22;5034827;28;45686;-57
2022/07/13 07:30:13;;;;;;;;;8.00;7.40;;;;;29.12;29.38;101465.41;5034931;28;45922;-60
2022/07/13 07:32:38;;;;;;;;;8.00;6.00;;;;;29.07;29.34;101467.19;5047221;28;45730;-53
2022/07/13 07:35:05;;;;;;;;;8.50;6.50;;;;;28.90;29.46;101436.84;5055547;28;45412;-55
2022/07/13 07:37:31;;;;;;;;;6.00;5.60;;;;;29.11;29.53;101467.38;5055357;28;45362;-51
2022/07/13 07:39:56;;;;;;;;;7.75;7.00;;;;;29.01;29.29;101440.22;5070100;28;46158;-56
2022/07/13 07:42:22;;;;;;;;;5.75;5.75;;;;;29.14;29.43;101458.28;5044749;28;45277;-58
2022/07/13 07:44:47;;;;;;;;;6.50;6.25;;;;;29.19;29.77;101462.97;5036408;28;45298;-57
2022/07/13 07:47:13;;;;;;;;;9.25;6.50;;;;;29.03;29.77;101429.44;5033499;28;45654;-59
2022/07/13 07:49:38;;;;;;;;;7.00;6.75;;;;;29.33;29.33;101460.03;5023724;28;46717;-61
2022/07/13 07:52:04;;;;;;;;;6.00;5.50;;;;;29.36;28.58;101454.56;5056306;28;45773;-58
2022/07/13 07:54:29;;;;;;;;;6.50;5.75;;;;;29.40;28.32;101453.94;5062093;28;46063;-60
2022/07/13 07:56:55;;;;;;;;;9.50;8.50;;;;;29.35;28.51;101438.78;5002605;28;45521;-60
2022/07/13 07:59:20;;;;;;;;;4.25;4.25;;;;;29.52;28.13;101457.03;4564441;27;10000472;-61
2022/07/13 08:01:45;;;;;;;;;8.25;7.00;;;;;29.54;28.98;101459.50;5011886;28;45659;-61
2022/07/13 08:04:11;;;;;;;;;5.00;5.00;;;;;29.54;28.97;101457.53;5014544;28;45739;-61
2022/07/13 08:06:37;;;;;;;;;6.50;5.00;;;;;29.55;28.59;101458.38;5015192;28;45338;-62
2022/07/13 08:09:03;;;;;;;;;8.00;7.00;;;;;29.56;28.70;101448.72;5013646;28;45471;-61
2022/07/13 08:11:28;;;;;;;;;5.75;4.00;;;;;29.57;27.45;101451.25;5009647;28;45434;-62
2022/07/13 08:13:54;;;;;;;;;6.50;5.00;;;;;29.36;27.63;101417.00;5010218;28;45317;-63
2022/07/13 08:16:19;;;;;;;;;3.50;3.50;;;;;29.61;27.66;101440.13;5010506;28;45484;-59
2022/07/13 08:18:45;;;;;;;;;4.75;4.75;;;;;29.68;27.32;101450.94;4996075;28;45354;-64
2022/07/13 08:21:11;;;;;;;;;5.00;5.00;;;;;29.63;27.88;101447.09;5027688;28;46608;-61
2022/07/13 08:23:52;;;;;;;;;4.25;3.75;;;;;29.68;27.51;101451.78;4995150;28;45528;-62
2022/07/13 08:26:22;;;;;;;;;6.80;4.40;;;;;29.60;27.03;101427.09;5012119;28;45368;-59
2022/07/13 08:28:47;;;;;;;;;3.20;3.20;;;;;29.79;27.29;101451.47;5047577;28;45568;-60
2022/07/13 08:31:13;;;;;;;;;4.00;4.00;;;;;29.76;27.46;101441.66;4997762;28;46789;-61
2022/07/13 08:39:08;;;;;;;;;8.60;8.00;;;;;29.82;27.46;101454.47;5010079;28;45785;-65
2022/07/13 08:41:33;;;;;;;;;4.75;3.00;;;;;29.75;26.86;101463.47;5042673;28;45894;-61
2022/07/13 08:44:00;;;;;;;;;5.00;4.00;;;;;29.74;27.98;101443.97;5011126;28;45453;-63
2022/07/13 08:46:26;;;;;;;;;4.60;3.60;;;;;29.82;27.78;101450.84;4997489;28;45279;-62
2022/07/13 08:48:53;;;;;;;;;4.00;4.00;;;;;29.82;27.79;101434.69;5013142;28;45427;-62
2022/07/13 08:51:19;;;;;;;;;4.00;4.00;;;;;30.02;27.52;101443.72;5003435;28;46160;-61
2022/07/13 08:53:44;;;;;;;;;6.50;4.00;;;;;30.02;27.24;101447.41;5030738;28;45431;-62
2022/07/13 08:56:10;;;;;;;;;3.50;3.00;;;;;30.02;27.81;101436.09;5047696;28;45401;-62
2022/07/13 08:58:36;;;;;;;;;4.80;4.20;;;;;30.14;27.48;101451.63;5014086;28;45414;-63
2022/07/13 09:01:01;;;;;;;;;5.75;4.25;;;;;30.11;27.71;101438.97;5013922;28;45789;-61
2022/07/13 09:03:32;;;;;;;;;4.00;3.00;;;;;30.20;27.29;101443.81;5015108;28;45464;-62
2022/07/13 09:05:59;;;;;;;;;3.00;3.00;;;;;30.10;27.78;101427.97;5015185;28;45432;-60
2022/07/13 09:08:24;;;;;;;;;3.80;3.00;;;;;30.04;27.23;101413.13;5015496;28;45397;-63
2022/07/13 09:10:59;;;;;;;;;3.00;3.00;;;;;30.20;27.52;101427.66;5015048;28;46229;-61
2022/07/13 09:13:41;;;;;;;;;3.00;3.00;;;;;30.15;27.31;101414.50;5013865;28;45487;-62
2022/07/13 09:16:22;;;;;;;;;2.80;2.80;;;;;30.34;26.57;101437.97;5015163;28;45238;-62
2022/07/13 09:18:50;;;;;;;;;4.20;4.20;;;;;30.39;26.85;101444.34;5031061;28;45544;-63
2022/07/13 09:21:15;;;;;;;;;2.60;2.60;;;;;30.46;27.15;101441.00;5013508;28;46949;-62
2022/07/13 09:23:41;;;;;;;;;5.00;4.00;;;;;30.51;26.21;101442.84;5030665;28;45259;-62
2022/07/13 09:26:07;;;;;;;;;6.75;5.50;;;;;30.53;26.71;101441.34;5030044;28;45363;-62
2022/07/13 09:28:45;;;;;;;;;3.75;3.00;;;;;30.57;26.79;101433.84;5014363;28;45717;-62
2022/07/13 09:31:12;;;;;;;;;5.20;3.80;;;;;30.49;26.23;101406.38;5013555;28;45543;-61
2022/07/13 09:33:38;;;;;;;;;4.40;2.20;;;;;30.64;25.59;101433.38;5014407;28;45400;-64
2022/07/13 09:36:11;;;;;;;;;4.00;4.00;;;;;30.68;26.46;101428.72;5015116;28;45326;-61
2022/07/13 09:38:42;;;;;;;;;5.60;4.20;;;;;30.69;26.59;101427.53;5013557;28;45391;-61
2022/07/13 09:41:24;;;;;;;;;3.00;3.00;;;;;30.66;25.56;101404.69;4997192;28;45991;-62
2022/07/13 09:46:54;;;;;;;;;4.00;4.00;;;;;30.74;26.00;101403.06;5013822;28;45368;-61
2022/07/13 09:49:29;;;;;;;;;4.40;4.00;;;;;31.01;25.86;101437.84;5016933;28;45569;-60
2022/07/13 09:51:58;;;;;;;;;4.60;4.60;;;;;31.03;25.28;101421.34;5004673;28;46508;-62
2022/07/13 09:54:30;;;;;;;;;3.80;3.80;;;;;30.98;25.42;101408.19;5017818;28;45429;-62
2022/07/13 09:56:59;;;;;;;;;3.80;3.40;;;;;30.96;25.31;101408.50;5016540;28;45813;-61
2022/07/13 09:59:26;;;;;;;;;5.40;5.40;;;;;31.21;25.44;101430.66;5000483;28;45379;-60
2022/07/13 10:01:51;;;;;;;;;3.00;3.00;;;;;31.11;25.28;101403.50;5016523;28;45483;-61
2022/07/13 10:04:17;;;;;;;;;2.50;2.50;;;;;31.35;24.67;101421.94;5016289;28;45411;-60
2022/07/13 10:06:42;;;;;;;;;3.00;3.00;;;;;31.16;25.97;101400.47;5016974;28;45333;-62
2022/07/13 10:09:08;;;;;;;;;4.75;3.50;;;;;31.34;24.51;101428.78;5016634;28;45493;-62
2022/07/13 10:11:33;;;;;;;;;2.50;2.50;;;;;31.37;24.24;101433.81;5016286;28;45863;-64
2022/07/13 10:13:59;;;;;;;;;3.00;3.00;;;;;31.05;24.19;101366.00;5017538;28;45328;-59
2022/07/13 10:16:28;;;;;;;;;2.75;2.75;;;;;31.38;24.71;101435.47;4999718;28;45363;-60
2022/07/13 10:18:54;;;;;;;;;4.20;4.20;;;;;31.45;24.34;101434.94;5016294;28;45357;-61
2022/07/13 10:21:53;;;;;;;;;3.00;3.00;;;;;31.48;24.58;101418.06;5016376;28;46633;-62
2022/07/13 10:24:19;;;;;;;;;4.20;4.20;;;;;31.62;24.67;101417.84;5015893;28;45354;-62
2022/07/13 10:26:48;;;;;;;;;4.25;3.25;;;;;31.73;24.24;101423.97;5016305;28;45280;-61
2022/07/13 10:29:15;;;;;;;;;5.40;4.20;;;;;31.64;24.99;101395.63;5032820;28;45398;-61
2022/07/13 10:31:41;;;;;;;;;3.00;3.00;;;;;31.78;24.08;101406.75;5032567;28;47573;-60
2022/07/13 10:34:07;;;;;;;;;2.80;2.80;;;;;32.00;23.59;101432.34;5032783;28;45398;-61
2022/07/13 10:36:49;;;;;;;;;3.20;3.20;;;;;32.01;23.82;101422.69;5049555;28;45310;-58
2022/07/13 10:39:15;;;;;;;;;4.00;3.00;;;;;31.98;23.81;101421.38;5017401;28;45428;-59
2022/07/13 10:42:02;;;;;;;;;3.00;3.00;;;;;32.05;23.80;101412.28;5017345;28;46091;-59
2022/07/13 10:44:37;;;;;;;;;2.20;2.20;;;;;31.75;24.38;101347.84;5017204;28;45382;-60
2022/07/13 10:47:11;;;;;;;;;3.20;3.20;;;;;32.04;24.20;101393.59;5017545;28;45336;-58
2022/07/13 10:49:47;;;;;;;;;2.60;2.60;;;;;32.15;24.15;101394.88;5016081;28;45428;-58
2022/07/13 10:52:22;;;;;;;;;6.00;4.40;;;;;32.36;23.40;101410.25;5048233;28;46513;-59
2022/07/13 10:55:37;;;;;;;;;4.00;2.00;;;;;32.40;23.72;101414.94;4998109;28;45470;-58
2022/07/13 10:58:39;;;;;;;;;4.60;4.40;;;;;32.43;24.33;101410.53;5012706;28;45425;-59
2022/07/13 11:01:42;;;;;;;;;3.00;3.00;;;;;32.49;23.91;101414.84;5017458;28;45579;-60
2022/07/13 11:04:09;;;;;;;;;1.40;1.40;;;;;32.37;23.40;101387.19;5031656;28;48502;-60
2022/07/13 11:06:35;;;;;;;;;4.00;4.00;;;;;32.57;23.29;101411.13;4999291;28;45367;-60
2022/07/13 11:09:06;;;;;;;;;3.75;3.75;;;;;32.58;23.89;101412.78;5016169;28;45481;-57
2022/07/13 11:11:32;;;;;;;;;3.00;3.00;;;;;32.59;24.30;101411.59;5017299;28;45749;-57
2022/07/13 11:13:58;;;;;;;;;3.25;3.25;;;;;32.65;24.27;101412.19;5032172;28;45884;-61
2022/07/13 11:16:45;;;;;;;;;3.75;3.00;;;;;32.70;23.79;101414.81;5016979;28;45341;-60
2022/07/13 11:19:10;;;;;;;;;4.00;4.00;;;;;32.71;23.97;101402.28;5015913;28;45428;-60
2022/07/13 11:22:08;;;;;;;;;4.50;3.00;;;;;32.88;23.67;101397.63;5015797;28;45498;-61
2022/07/13 11:27:21;;;;;;;;;4.00;4.00;;;;;32.97;23.58;101400.41;5001852;28;45310;-59
2022/07/13 11:29:49;;;;;;;;;4.20;3.00;;;;;33.05;24.10;101393.78;5032601;28;45240;-64
2022/07/13 11:32:18;;;;;;;;;4.20;4.00;;;;;33.08;23.83;101390.22;5049031;28;45599;-60
2022/07/13 11:34:44;;;;;;;;;3.00;3.00;;;;;33.14;24.22;101399.38;5032557;28;45671;-59